createdAt,value
2019-02-18T03:34:27.531Z,102225.00
2019-02-18T03:36:56.793Z,102224.52
2019-02-18T03:39:26.118Z,102220.75
2019-02-18T03:41:55.492Z,102218.20
2019-02-18T03:44:24.749Z,102214.98
2019-02-18T03:46:54.078Z,102215.52
2019-02-18T03:49:23.500Z,102215.20
2019-02-18T03:51:52.827Z,102203.17
2019-02-18T03:54:22.202Z,102204.53
2019-02-18T03:56:51.729Z,102203.35
2019-02-18T03:59:21.064Z,102197.20
2019-02-18T04:01:50.448Z,102201.28
2019-02-18T04:04:19.726Z,102185.55
2019-02-18T04:06:49.009Z,102185.56
2019-02-18T04:09:18.349Z,102179.00
2019-02-18T04:11:47.920Z,102175.87
2019-02-18T04:14:17.231Z,102168.53
2019-02-18T04:16:46.595Z,102165.28
2019-02-18T04:19:15.897Z,102168.72
2019-02-18T04:21:45.204Z,102175.31
2019-02-18T04:24:14.576Z,102167.98
2019-02-18T04:26:44.044Z,102151.02
2019-02-18T04:29:13.331Z,102155.84
2019-02-18T04:31:42.674Z,102153.45
2019-02-18T04:34:12.059Z,102159.34
2019-02-18T04:36:41.336Z,102152.72
2019-02-18T04:39:10.687Z,102148.02
2019-02-18T04:41:40.137Z,102146.09
2019-02-18T04:44:09.455Z,102133.74
2019-02-18T04:46:38.737Z,102134.05
2019-02-18T04:49:08.212Z,102125.05
2019-02-18T04:51:37.510Z,102130.16
2019-02-18T04:54:06.852Z,102129.75
2019-02-18T04:56:36.421Z,102129.84
2019-02-18T04:59:05.697Z,102121.05
2019-02-18T05:01:35.090Z,102121.80
2019-02-18T05:04:04.609Z,102114.33
2019-02-18T05:06:34.001Z,102108.55
2019-02-18T05:09:05.651Z,102110.25
2019-02-18T05:11:35.440Z,102109.17
2019-02-18T05:14:04.692Z,102110.25
2019-02-18T05:16:34.013Z,102107.41
2019-02-18T05:19:03.458Z,102101.22
2019-02-18T05:21:32.771Z,102096.05
2019-02-18T05:24:02.078Z,102101.84
2019-02-18T05:26:31.447Z,102097.32
2019-02-18T05:29:00.853Z,102103.51
2019-02-18T05:31:30.164Z,102100.78
2019-02-18T05:33:59.484Z,102098.28
2019-02-18T05:36:28.804Z,102098.06
2019-02-18T05:38:58.136Z,102095.65
2019-02-18T05:41:27.636Z,102088.10
2019-02-18T05:43:56.973Z,102081.27
2019-02-18T05:46:26.407Z,102084.23
2019-02-18T05:48:55.853Z,102085.25
2019-02-18T05:51:25.164Z,102083.70
2019-02-18T05:53:54.460Z,102080.24
2019-02-18T05:56:24.064Z,102076.47
2019-02-18T05:58:53.371Z,102078.88
2019-02-18T06:01:22.702Z,102068.30
2019-02-18T06:03:52.275Z,102069.66
2019-02-18T06:06:21.556Z,102072.38
2019-02-18T06:08:50.913Z,102084.63
2019-02-18T06:11:20.343Z,102080.67
2019-02-18T06:13:49.653Z,102075.14
2019-02-18T06:16:18.981Z,102073.03
2019-02-18T06:18:48.484Z,102068.82
2019-02-18T06:21:17.817Z,102068.84
2019-02-18T06:23:47.178Z,102072.91
2019-02-18T06:26:16.604Z,102068.53
2019-02-18T06:28:45.998Z,102076.70
2019-02-18T06:31:15.318Z,102073.48
2019-02-18T06:33:44.755Z,102073.39
2019-02-18T06:36:14.202Z,102077.60
2019-02-18T06:38:43.481Z,102077.90
2019-02-18T06:41:13.000Z,102078.77
2019-02-18T06:43:42.340Z,102084.31
2019-02-18T06:46:22.367Z,102090.19
2019-02-18T06:48:55.457Z,102091.66
2019-02-18T06:51:24.999Z,102094.16
2019-02-18T06:53:54.354Z,102088.91
2019-02-18T06:56:40.567Z,102086.72
2019-02-18T06:59:17.655Z,102078.33
2019-02-18T07:02:11.678Z,102078.75
2019-02-18T07:05:06.050Z,102075.92
2019-02-18T07:07:44.621Z,102073.20
2019-02-18T07:10:39.179Z,102069.09
2019-02-18T07:13:08.645Z,102063.36
2019-02-18T07:15:37.939Z,102070.67
2019-02-18T07:18:07.294Z,102067.42
2019-02-18T07:20:36.771Z,102074.54
2019-02-18T07:23:06.072Z,102084.73
2019-02-18T07:25:35.446Z,102079.16
2019-02-18T07:28:05.176Z,102072.45
2019-02-18T07:30:34.483Z,102067.20
2019-02-18T07:33:03.830Z,102066.33
2019-02-18T07:35:33.097Z,102070.83
2019-02-18T07:38:02.403Z,102070.49
2019-02-18T07:40:31.798Z,102068.17
2019-02-18T07:43:01.328Z,102062.91
2019-02-18T07:45:30.604Z,102060.65
2019-02-18T07:47:59.861Z,102057.19
2019-02-18T07:50:29.547Z,102053.69
2019-02-18T07:52:58.849Z,102048.16
2019-02-18T07:55:28.110Z,102041.00
2019-02-18T07:57:57.640Z,102029.19
2019-02-18T08:00:26.991Z,102036.66
2019-02-18T08:02:56.395Z,102037.59
2019-02-18T08:05:25.849Z,102037.45
2019-02-18T08:07:55.114Z,102026.47
2019-02-18T08:10:24.501Z,102022.60
2019-02-18T08:12:53.824Z,102030.30
2019-02-18T08:15:23.137Z,102032.34
2019-02-18T08:17:52.493Z,102031.19
2019-02-18T08:20:21.863Z,102028.06
2019-02-18T08:22:51.154Z,102038.34
2019-02-18T08:25:20.501Z,102034.89
2019-02-18T08:27:49.788Z,102033.94
2019-02-18T08:30:19.138Z,102028.57
2019-02-18T08:32:48.488Z,102019.98
2019-02-18T08:35:17.836Z,102027.20
2019-02-18T08:37:47.166Z,102017.29
2019-02-18T08:40:22.505Z,102007.52
2019-02-18T08:42:47.641Z,102002.78
2019-02-18T08:45:16.914Z,101998.48
2019-02-18T08:47:46.204Z,101990.42
2019-02-18T08:50:15.755Z,101993.00
2019-02-18T08:52:45.106Z,101990.85
2019-02-18T08:55:14.669Z,101994.80
2019-02-18T08:57:44.144Z,101992.71
2019-02-18T09:00:15.638Z,101987.88
2019-02-18T09:02:45.207Z,101989.31
2019-02-18T09:05:15.816Z,101994.61
2019-02-18T09:07:45.167Z,101992.34
2019-02-18T09:10:14.578Z,101996.23
2019-02-18T09:12:43.888Z,102005.80
2019-02-18T09:15:14.259Z,102001.70
2019-02-18T09:17:44.046Z,102010.23
2019-02-18T09:20:13.352Z,102006.63
2019-02-18T09:22:52.046Z,102012.64
2019-02-18T09:25:33.022Z,102005.50
2019-02-18T09:28:02.555Z,102007.31
2019-02-18T09:30:34.290Z,102006.57
2019-02-18T09:33:03.826Z,101998.66
2019-02-18T09:35:33.226Z,101996.83
2019-02-18T09:38:02.529Z,101997.66
2019-02-18T09:40:32.322Z,101992.72
2019-02-18T09:43:01.575Z,101991.11
2019-02-18T09:45:30.840Z,101984.02
2019-02-18T09:48:00.368Z,101983.49
2019-02-18T09:50:29.734Z,101981.48
2019-02-18T09:52:59.104Z,101975.00
2019-02-18T09:55:28.711Z,101974.68
2019-02-18T09:57:57.993Z,101977.00
2019-02-18T10:00:27.254Z,101973.65
2019-02-18T10:02:56.715Z,101971.03
2019-02-18T10:05:26.146Z,101972.36
2019-02-18T10:07:55.637Z,101974.78
2019-02-18T10:10:24.956Z,101978.68
2019-02-18T10:12:54.289Z,101968.36
2019-02-18T10:15:23.601Z,101960.67
2019-02-18T10:17:52.916Z,101967.27
2019-02-18T10:20:22.244Z,101961.27
2019-02-18T10:22:51.533Z,101960.56
2019-02-18T10:25:21.403Z,101959.02
2019-02-18T10:27:50.720Z,101959.79
2019-02-18T10:30:20.826Z,101958.58
2019-02-18T10:32:50.286Z,101955.31
2019-02-18T10:35:19.604Z,101944.59
2019-02-18T10:37:55.020Z,101947.94
2019-02-18T10:40:20.163Z,101950.44
2019-02-18T10:42:49.468Z,101958.29
2019-02-18T10:45:18.825Z,101955.60
2019-02-18T10:47:48.204Z,101956.47
2019-02-18T10:50:17.642Z,101953.32
2019-02-18T10:52:46.895Z,101943.09
2019-02-18T10:55:16.560Z,101928.21
2019-02-18T10:57:45.936Z,101917.80
2019-02-18T11:00:15.607Z,101921.30
2019-02-18T11:02:45.845Z,101915.35
2019-02-18T11:05:15.296Z,101912.05
2019-02-18T11:07:44.604Z,101903.24
2019-02-18T11:10:14.512Z,101900.50
2019-02-18T11:12:43.768Z,101902.84
2019-02-18T11:15:13.366Z,101898.59
2019-02-18T11:17:43.090Z,101895.70
2019-02-18T11:20:12.485Z,101896.31
2019-02-18T11:22:41.813Z,101885.92
2019-02-18T11:25:11.642Z,101881.95
2019-02-18T11:27:41.028Z,101881.64
2019-02-18T11:30:12.839Z,101884.39
2019-02-18T11:32:42.148Z,101880.55
2019-02-18T11:35:11.749Z,101865.58
2019-02-18T11:37:41.169Z,101866.05
2019-02-18T11:40:12.673Z,101864.72
2019-02-18T11:42:42.127Z,101864.14
2019-02-18T11:45:12.759Z,101859.28
2019-02-18T11:47:42.012Z,101856.64
2019-02-18T11:50:12.312Z,101861.34
2019-02-18T11:52:41.708Z,101865.25
2019-02-18T11:55:11.366Z,101864.93
2019-02-18T11:57:40.848Z,101861.01
2019-02-18T12:00:11.240Z,101855.95
2019-02-18T12:02:40.593Z,101862.55
2019-02-18T12:05:10.455Z,101856.63
2019-02-18T12:07:39.836Z,101853.31
2019-02-18T12:10:09.867Z,101851.66
2019-02-18T12:12:39.546Z,101853.00
2019-02-18T12:15:10.060Z,101845.32
2019-02-18T12:17:39.337Z,101837.19
2019-02-18T12:20:10.931Z,101839.06
2019-02-18T12:22:40.319Z,101837.48
2019-02-18T12:25:09.816Z,101830.96
2019-02-18T12:27:39.805Z,101821.59
2019-02-18T12:30:10.085Z,101817.35
2019-02-18T12:32:39.482Z,101810.94
2019-02-18T12:35:09.297Z,101808.77
2019-02-18T12:37:38.578Z,101801.41
2019-02-18T12:40:08.563Z,101799.78
2019-02-18T12:42:38.162Z,101800.91
2019-02-18T12:45:08.413Z,101798.78
2019-02-18T12:47:37.865Z,101792.16
2019-02-18T12:50:07.736Z,101779.89
2019-02-18T12:52:37.093Z,101778.27
2019-02-18T12:55:06.535Z,101775.72
2019-02-18T12:57:36.214Z,101770.69
2019-02-18T13:00:06.418Z,101772.61
2019-02-18T13:02:43.688Z,101770.52
2019-02-18T13:05:07.409Z,101772.78
2019-02-18T13:07:36.787Z,101768.25
2019-02-18T13:10:06.167Z,101766.01
2019-02-18T13:12:35.425Z,101767.48
2019-02-18T13:15:05.710Z,101759.98
2019-02-18T13:17:35.064Z,101755.74
2019-02-18T13:20:04.513Z,101749.96
2019-02-18T13:22:33.901Z,101741.67
2019-02-18T13:25:03.331Z,101747.70
2019-02-18T13:27:32.768Z,101743.41
2019-02-18T13:30:02.023Z,101737.05
2019-02-18T13:32:31.380Z,101739.06
2019-02-18T13:35:00.794Z,101738.16
2019-02-18T13:37:30.226Z,101737.03
2019-02-18T13:39:59.529Z,101740.29
2019-02-18T13:42:29.074Z,101739.78
2019-02-18T13:44:58.402Z,101743.34
2019-02-18T13:47:27.670Z,101733.08
2019-02-18T13:49:57.240Z,101735.60
2019-02-18T13:52:26.531Z,101728.20
2019-02-18T13:54:55.821Z,101723.74
2019-02-18T13:57:25.357Z,101718.45
2019-02-18T13:59:54.695Z,101718.70
2019-02-18T14:02:24.042Z,101714.87
2019-02-18T14:04:53.567Z,101712.22
2019-02-18T14:07:22.849Z,101716.80
2019-02-18T14:09:52.115Z,101716.98
2019-02-18T14:12:21.407Z,101715.80
2019-02-18T14:14:50.740Z,101713.96
2019-02-18T14:17:20.043Z,101704.91
2019-02-18T14:19:49.571Z,101703.65
2019-02-18T14:22:19.003Z,101702.50
2019-02-18T14:24:48.483Z,101702.28
2019-02-18T14:27:17.798Z,101702.50
2019-02-18T14:29:47.416Z,101704.77
2019-02-18T14:32:16.765Z,101695.09
2019-02-18T14:34:46.159Z,101701.08
2019-02-18T14:37:15.426Z,101700.91
2019-02-18T14:39:44.717Z,101696.73
2019-02-18T14:42:14.188Z,101701.92
2019-02-18T14:44:43.836Z,101697.39
2019-02-18T14:47:13.260Z,101695.52
2019-02-18T14:49:43.036Z,101693.72
2019-02-18T14:52:12.865Z,101698.19
2019-02-18T14:54:42.236Z,101696.39
2019-02-18T14:57:11.710Z,101690.48
2019-02-18T14:59:41.257Z,101686.27
2019-02-18T15:02:10.865Z,101688.85
2019-02-18T15:04:40.293Z,101682.51
2019-02-18T15:07:09.645Z,101673.64
2019-02-18T15:09:38.959Z,101682.25
2019-02-18T15:12:08.760Z,101683.86
2019-02-18T15:14:38.368Z,101682.05
2019-02-18T15:17:07.645Z,101688.48
2019-02-18T15:19:37.106Z,101690.02
2019-02-18T15:22:06.384Z,101682.57
2019-02-18T15:24:35.660Z,101680.47
2019-02-18T15:27:05.159Z,101679.23
2019-02-18T15:29:35.154Z,101680.61
2019-02-18T15:32:04.712Z,101685.28
2019-02-18T15:34:34.333Z,101679.07
2019-02-18T15:37:03.667Z,101681.84
2019-02-18T15:39:32.906Z,101675.73
2019-02-18T15:42:02.347Z,101681.97
2019-02-18T15:44:31.755Z,101674.39
2019-02-18T15:47:01.199Z,101666.64
2019-02-18T15:49:30.596Z,101672.56
2019-02-18T15:51:59.920Z,101673.48
2019-02-18T15:54:29.231Z,101673.13
2019-02-18T15:56:58.754Z,101673.73
2019-02-18T15:59:28.110Z,101669.10
2019-02-18T16:01:57.427Z,101672.73
2019-02-18T16:04:26.853Z,101673.50
2019-02-18T16:06:56.204Z,101667.71
2019-02-18T16:09:25.476Z,101665.81
2019-02-18T16:11:54.889Z,101661.91
2019-02-18T16:14:24.223Z,101662.44
2019-02-18T16:16:53.570Z,101662.33
2019-02-18T16:19:23.045Z,101666.59
2019-02-18T16:21:52.395Z,101662.72
2019-02-18T16:24:21.780Z,101666.16
2019-02-18T16:26:51.315Z,101667.45
2019-02-18T16:29:20.822Z,101671.44
2019-02-18T16:31:50.128Z,101674.09
2019-02-18T16:34:19.658Z,101675.30
2019-02-18T16:36:48.995Z,101673.59
2019-02-18T16:39:18.374Z,101667.86
2019-02-18T16:41:47.925Z,101667.47
2019-02-18T16:44:17.258Z,101664.16
2019-02-18T16:46:46.517Z,101671.84
2019-02-18T16:49:16.292Z,101669.97
2019-02-18T16:51:45.724Z,101673.56
2019-02-18T16:54:15.069Z,101670.74
2019-02-18T16:56:44.629Z,101664.59
2019-02-18T16:59:13.990Z,101663.64
2019-02-18T17:01:43.305Z,101656.58
2019-02-18T17:04:12.651Z,101660.47
2019-02-18T17:06:42.072Z,101660.05
2019-02-18T17:09:14.846Z,101659.03
2019-02-18T17:11:44.213Z,101650.64
2019-02-18T17:14:13.549Z,101654.41
2019-02-18T17:16:42.946Z,101654.13
2019-02-18T17:19:12.258Z,101652.56
2019-02-18T17:21:41.597Z,101648.15
2019-02-18T17:24:11.141Z,101656.32
2019-02-18T17:26:40.596Z,101658.41
2019-02-18T17:29:09.911Z,101652.44
2019-02-18T17:31:39.352Z,101648.86
2019-02-18T17:34:08.672Z,101651.25
2019-02-18T17:36:38.002Z,101646.05
2019-02-18T17:39:08.122Z,101644.91
2019-02-18T17:41:37.648Z,101643.74
2019-02-18T17:44:06.946Z,101636.33
2019-02-18T17:46:36.417Z,101634.95
2019-02-18T17:49:05.774Z,101630.23
2019-02-18T17:51:35.110Z,101629.41
2019-02-18T17:54:04.740Z,101627.73
2019-02-18T17:56:34.329Z,101622.99
2019-02-18T17:59:03.575Z,101626.42
2019-02-18T18:01:32.929Z,101617.63
2019-02-18T18:04:02.277Z,101609.58
2019-02-18T18:06:31.649Z,101606.34
2019-02-18T18:09:01.027Z,101611.24
2019-02-18T18:11:30.691Z,101606.62
2019-02-18T18:13:59.978Z,101600.05
2019-02-18T18:16:29.287Z,101602.86
2019-02-18T18:18:58.581Z,101601.80
2019-02-18T18:21:27.936Z,101596.25
2019-02-18T18:23:57.462Z,101596.52
2019-02-18T18:26:26.786Z,101600.33
2019-02-18T18:28:56.175Z,101594.37
2019-02-18T18:31:25.637Z,101591.09
2019-02-18T18:33:54.903Z,101586.58
2019-02-18T18:36:24.326Z,101592.74
2019-02-18T18:38:53.748Z,101584.92
2019-02-18T18:41:23.124Z,101585.97
2019-02-18T18:43:52.433Z,101593.45
2019-02-18T18:46:21.687Z,101585.73
2019-02-18T18:48:50.985Z,101587.71
2019-02-18T18:51:20.259Z,101585.53
2019-02-18T18:53:49.590Z,101587.62
2019-02-18T18:56:19.011Z,101588.80
2019-02-18T18:58:48.310Z,101581.84
2019-02-18T19:01:17.702Z,101582.28
2019-02-18T19:03:47.154Z,101576.43
2019-02-18T19:06:16.580Z,101581.67
2019-02-18T19:08:46.207Z,101585.39
2019-02-18T19:11:15.536Z,101581.41
2019-02-18T19:13:44.818Z,101573.09
2019-02-18T19:16:14.141Z,101584.38
2019-02-18T19:18:43.473Z,101582.43
2019-02-18T19:21:12.833Z,101579.63
2019-02-18T19:23:42.455Z,101572.93
2019-02-18T19:26:11.671Z,101576.73
2019-02-18T19:28:40.969Z,101571.80
2019-02-18T19:31:10.257Z,101573.89
2019-02-18T19:33:39.574Z,101570.58
2019-02-18T19:36:08.931Z,101571.29
2019-02-18T19:38:38.271Z,101566.69
2019-02-18T19:41:07.622Z,101569.22
2019-02-18T19:43:37.027Z,101558.28
2019-02-18T19:46:06.525Z,101554.11
2019-02-18T19:48:35.826Z,101546.55
2019-02-18T19:51:05.397Z,101547.27
2019-02-18T19:53:34.841Z,101545.91
2019-02-18T19:56:04.145Z,101550.06
2019-02-18T19:58:33.580Z,101552.41
2019-02-18T20:01:03.030Z,101549.69
2019-02-18T20:03:32.364Z,101549.80
2019-02-18T20:06:01.889Z,101543.61
2019-02-18T20:08:31.402Z,101546.13
2019-02-18T20:11:00.774Z,101543.61
2019-02-18T20:13:30.067Z,101540.92
2019-02-18T20:15:59.528Z,101549.91
2019-02-18T20:18:28.822Z,101542.50
2019-02-18T20:20:58.240Z,101544.88
2019-02-18T20:23:27.709Z,101535.59
2019-02-18T20:25:57.050Z,101533.08
2019-02-18T20:28:26.432Z,101536.45
2019-02-18T20:30:55.922Z,101528.40
2019-02-18T20:33:25.288Z,101528.17
2019-02-18T20:35:54.592Z,101526.91
2019-02-18T20:38:24.027Z,101520.74
2019-02-18T20:40:53.285Z,101519.06
2019-02-18T20:43:22.679Z,101510.08
2019-02-18T20:45:52.126Z,101515.61
2019-02-18T20:48:21.469Z,101518.52
2019-02-18T20:50:50.780Z,101510.35
2019-02-18T20:53:20.368Z,101508.47
2019-02-18T20:55:49.689Z,101505.86
2019-02-18T20:58:19.000Z,101496.05
2019-02-18T21:00:48.530Z,101498.55
2019-02-18T21:03:18.097Z,101498.77
2019-02-18T21:05:47.450Z,101496.77
2019-02-18T21:08:16.932Z,101485.70
2019-02-18T21:10:46.276Z,101485.30
2019-02-18T21:13:15.594Z,101472.38
2019-02-18T21:15:45.206Z,101469.98
2019-02-18T21:18:14.781Z,101465.91
2019-02-18T21:20:44.225Z,101468.44
2019-02-18T21:23:13.807Z,101471.34
2019-02-18T21:25:43.892Z,101467.27
2019-02-18T21:28:13.207Z,101473.01
2019-02-18T21:30:42.644Z,101466.11
2019-02-18T21:33:12.107Z,101471.30
2019-02-18T21:35:41.450Z,101471.16
2019-02-18T21:38:10.958Z,101469.58
2019-02-18T21:40:40.308Z,101463.33
2019-02-18T21:43:09.583Z,101463.02
2019-02-18T21:45:39.181Z,101463.45
2019-02-18T21:48:09.045Z,101448.44
2019-02-18T21:50:38.346Z,101449.39
2019-02-18T21:53:07.878Z,101446.25
2019-02-18T21:55:37.260Z,101442.83
2019-02-18T21:58:06.669Z,101438.34
2019-02-18T22:00:36.256Z,101434.99
2019-02-18T22:03:05.595Z,101434.26
2019-02-18T22:05:34.951Z,101433.80
2019-02-18T22:08:04.303Z,101432.42
2019-02-18T22:10:33.595Z,101421.05
2019-02-18T22:13:02.893Z,101423.16
2019-02-18T22:15:32.468Z,101418.67
2019-02-18T22:18:01.892Z,101418.18
2019-02-18T22:20:31.274Z,101418.45
2019-02-18T22:23:00.722Z,101415.66
2019-02-18T22:25:30.053Z,101421.52
2019-02-18T22:27:59.378Z,101415.44
2019-02-18T22:30:28.910Z,101413.35
2019-02-18T22:32:58.434Z,101419.36
2019-02-18T22:35:27.718Z,101419.84
2019-02-18T22:37:57.190Z,101415.97
2019-02-18T22:40:26.498Z,101416.58
2019-02-18T22:42:55.772Z,101414.35
2019-02-18T22:45:25.289Z,101420.77
2019-02-18T22:47:54.660Z,101414.61
2019-02-18T22:50:23.975Z,101408.45
2019-02-18T22:52:53.547Z,101409.94
2019-02-18T22:55:22.866Z,101407.41
2019-02-18T22:57:52.118Z,101410.70
2019-02-18T23:00:59.389Z,101404.17
2019-02-18T23:03:28.848Z,101408.05
2019-02-18T23:05:58.229Z,101400.51
2019-02-18T23:08:27.751Z,101400.75
2019-02-18T23:10:57.105Z,101391.20
2019-02-18T23:13:26.440Z,101385.64
2019-02-18T23:15:56.536Z,101381.23
2019-02-18T23:18:25.900Z,101378.22
2019-02-18T23:20:55.215Z,101369.34
2019-02-18T23:23:24.731Z,101370.44
2019-02-18T23:25:54.072Z,101368.86
2019-02-18T23:28:23.447Z,101364.49
2019-02-18T23:30:53.084Z,101356.77
2019-02-18T23:33:22.435Z,101358.25
2019-02-18T23:35:51.705Z,101349.59
2019-02-18T23:38:21.155Z,101345.02
2019-02-18T23:40:50.505Z,101342.52
2019-02-18T23:43:19.828Z,101342.52
2019-02-18T23:45:49.588Z,101339.99
2019-02-18T23:48:18.958Z,101331.69
2019-02-18T23:50:48.280Z,101320.23
2019-02-18T23:53:17.915Z,101316.94
2019-02-18T23:55:47.298Z,101312.88
2019-02-18T23:58:16.686Z,101310.84
